Time;durP1;ratioP1;P1;durP2;ratioP2;P2;SDS_P1;SDS_P2;PMS_P1;PMS_P2;Temp;Humidity;BMP_temperature;BMP_pressure;BME280_temperature;BME280_humidity;BME280_pressure;Samples;Min_cycle;Max_cycle;Signal;HPM_P1;HPM_P2
2022/12/25 00:00:00;;;;;;;9.35;7.85;;;;;;;;;;4819342;29;20043;-82
2022/12/25 00:02:28;;;;;;;8.40;7.05;;;;;;;;;;4813551;29;20133;-82
2022/12/25 00:04:56;;;;;;;10.13;6.72;;;;;;;;;;4814959;29;20037;-82
2022/12/25 00:07:23;;;;;;;11.10;6.78;;;;;;;;;;4820460;29;20053;-83
2022/12/25 00:09:50;;;;;;;12.02;7.32;;;;;;;;;;4813659;29;20410;-83
2022/12/25 00:12:19;;;;;;;10.55;7.95;;;;;;;;;;4809845;29;20054;-83
2022/12/25 00:14:47;;;;;;;13.85;8.32;;;;;;;;;;4827549;29;20049;-83
2022/12/25 00:17:14;;;;;;;13.13;8.35;;;;;;;;;;4801900;29;20523;-82
2022/12/25 00:19:42;;;;;;;14.95;8.38;;;;;;;;;;4802434;29;20507;-82
2022/12/25 00:22:09;;;;;;;11.02;7.43;;;;;;;;;;4831457;29;20086;-82
2022/12/25 00:24:46;;;;;;;8.32;7.43;;;;;;;;;;4813463;29;20253;-81
2022/12/25 00:27:14;;;;;;;8.40;7.50;;;;;;;;;;4784331;29;20077;-82
2022/12/25 00:29:41;;;;;;;11.93;7.85;;;;;;;;;;4795785;29;20428;-82
2022/12/25 00:32:09;;;;;;;15.32;9.10;;;;;;;;;;4833124;29;20046;-83
2022/12/25 00:34:36;;;;;;;11.45;8.68;;;;;;;;;;4819299;29;20064;-83
2022/12/25 00:37:03;;;;;;;13.07;7.78;;;;;;;;;;4792986;29;20086;-83
2022/12/25 00:39:31;;;;;;;11.98;7.50;;;;;;;;;;4830722;29;20042;-83
2022/12/25 00:44:45;;;;;;;7.50;6.15;;;;;;;;;;4823773;29;20054;-83
2022/12/25 00:47:13;;;;;;;12.52;7.40;;;;;;;;;;4824016;29;20060;-82
2022/12/25 00:49:40;;;;;;;9.13;6.72;;;;;;;;;;4808188;29;20417;-82
2022/12/25 00:52:07;;;;;;;13.90;7.88;;;;;;;;;;4824001;29;20419;-83
2022/12/25 00:54:35;;;;;;;8.50;6.43;;;;;;;;;;4812826;29;20480;-82
2022/12/25 00:57:03;;;;;;;11.95;6.13;;;;;;;;;;4811021;29;20058;-82
2022/12/25 00:59:31;;;;;;;11.93;6.35;;;;;;;;;;4841567;29;20065;-82
2022/12/25 01:02:22;;;;;;;9.27;5.75;;;;;;;;;;4808972;29;20053;-82
2022/12/25 01:04:46;;;;;;;9.90;8.02;;;;;;;;;;4825788;29;20070;-81
2022/12/25 01:07:15;;;;;;;9.23;7.18;;;;;;;;;;4814838;29;20057;-83
2022/12/25 01:12:33;;;;;;;10.57;5.15;;;;;;;;;;4811150;29;20117;-82
2022/12/25 01:15:00;;;;;;;10.65;5.78;;;;;;;;;;4823418;29;20046;-82
2022/12/25 01:17:28;;;;;;;25.52;21.75;;;;;;;;;;4823133;29;20077;-82
2022/12/25 01:19:55;;;;;;;14.52;8.15;;;;;;;;;;4822419;29;20042;-83
2022/12/25 01:22:22;;;;;;;7.93;6.93;;;;;;;;;;4822524;29;20110;-82
2022/12/25 01:24:50;;;;;;;9.48;5.72;;;;;;;;;;4807920;29;20450;-82
2022/12/25 01:27:17;;;;;;;8.55;5.50;;;;;;;;;;4792555;29;20479;-83
2022/12/25 01:29:45;;;;;;;11.15;7.88;;;;;;;;;;4799880;29;20073;-82
2022/12/25 01:32:13;;;;;;;13.50;10.18;;;;;;;;;;4804622;29;20194;-82
2022/12/25 01:34:40;;;;;;;10.25;6.82;;;;;;;;;;4804850;29;20070;-82
2022/12/25 01:37:07;;;;;;;8.80;5.40;;;;;;;;;;4790374;29;20058;-82
2022/12/25 01:39:35;;;;;;;7.25;6.50;;;;;;;;;;4801505;29;20053;-83
2022/12/25 01:42:02;;;;;;;9.93;5.43;;;;;;;;;;4807914;29;20082;-82
2022/12/25 01:44:36;;;;;;;11.60;8.82;;;;;;;;;;4844144;29;20046;-82
2022/12/25 01:47:04;;;;;;;7.30;4.70;;;;;;;;;;4854221;29;20058;-82
2022/12/25 01:49:34;;;;;;;11.55;8.45;;;;;;;;;;4808111;29;20092;-82
2022/12/25 01:52:04;;;;;;;6.75;5.28;;;;;;;;;;4823263;29;20114;-82
2022/12/25 01:54:39;;;;;;;6.65;4.97;;;;;;;;;;4807814;29;20122;-83
2022/12/25 01:57:08;;;;;;;9.80;5.72;;;;;;;;;;4821116;29;20041;-83
2022/12/25 01:59:36;;;;;;;5.45;4.63;;;;;;;;;;4822083;29;20410;-83
2022/12/25 02:02:03;;;;;;;15.32;10.88;;;;;;;;;;4823277;29;20302;-83
2022/12/25 02:04:38;;;;;;;11.70;6.47;;;;;;;;;;4807395;29;20054;-83
2022/12/25 02:07:07;;;;;;;8.15;5.53;;;;;;;;;;4822627;29;20049;-82
2022/12/25 02:09:36;;;;;;;5.50;5.00;;;;;;;;;;4821985;29;20050;-82
2022/12/25 02:12:04;;;;;;;7.80;7.10;;;;;;;;;;4824975;29;20065;-82
2022/12/25 02:14:33;;;;;;;8.10;5.63;;;;;;;;;;4820434;29;20054;-82
2022/12/25 02:17:23;;;;;;;10.93;5.80;;;;;;;;;;4807119;29;20056;-82
2022/12/25 02:19:59;;;;;;;5.43;4.45;;;;;;;;;;4822094;29;20073;-82
2022/12/25 02:22:30;;;;;;;5.35;3.70;;;;;;;;;;4822273;29;20068;-83
2022/12/25 02:25:16;;;;;;;6.18;3.72;;;;;;;;;;4823495;29;20050;-82
2022/12/25 02:27:52;;;;;;;4.65;4.05;;;;;;;;;;4836932;29;20050;-81
2022/12/25 02:30:19;;;;;;;9.88;4.93;;;;;;;;;;4814806;29;20094;-81
2022/12/25 02:34:01;;;;;;;4.82;4.38;;;;;;;;;;4807709;29;20617;-82
2022/12/25 02:35:45;;;;;;;3.80;3.45;;;;;;;;;;4822300;29;20437;-82
2022/12/25 02:38:16;;;;;;;7.28;4.00;;;;;;;;;;4807694;29;20064;-82
2022/12/25 02:40:46;;;;;;;8.18;3.95;;;;;;;;;;4824327;29;20113;-82
2022/12/25 03:08:51;;;;;;;5.28;3.70;;;;;;;;;;4825439;29;20098;-81
2022/12/25 03:11:31;;;;;;;3.83;3.38;;;;;;;;;;4832982;29;20080;-82
2022/12/25 03:16:52;;;;;;;3.70;3.17;;;;;;;;;;4821332;29;20118;-82
2022/12/25 03:27:46;;;;;;;5.30;2.92;;;;;;;;;;4788374;29;20062;-83
2022/12/25 03:33:16;;;;;;;3.97;3.53;;;;;;;;;;4806988;29;20047;-84
2022/12/25 03:36:04;;;;;;;5.22;3.10;;;;;;;;;;4803895;29;20058;-82
2022/12/25 04:37:32;;;;;;;9.55;5.57;;;;;;;;;;4880455;29;20052;-87
2022/12/25 04:39:59;;;;;;;5.72;4.45;;;;;;;;;;4880865;29;20072;-87
2022/12/25 04:42:26;;;;;;;10.45;9.10;;;;;;;;;;4864031;29;20155;-88
2022/12/25 04:44:53;;;;;;;10.07;5.43;;;;;;;;;;4864921;29;20115;-87
2022/12/25 04:47:21;;;;;;;6.35;4.70;;;;;;;;;;4879876;29;20059;-87
2022/12/25 04:49:48;;;;;;;9.27;4.60;;;;;;;;;;4849785;29;20108;-88
2022/12/25 04:55:39;;;;;;;7.65;6.85;;;;;;;;;;4795534;29;20466;-85
2022/12/25 04:58:07;;;;;;;8.63;6.68;;;;;;;;;;4843031;23;20052;-82
2022/12/25 05:00:35;;;;;;;10.50;8.32;;;;;;;;;;4884204;29;20061;-82
2022/12/25 05:03:02;;;;;;;7.97;5.85;;;;;;;;;;4868829;29;20128;-82
2022/12/25 05:05:30;;;;;;;8.00;5.00;;;;;;;;;;4881860;29;20063;-83
2022/12/25 05:07:57;;;;;;;16.95;7.35;;;;;;;;;;4864201;29;20056;-83
2022/12/25 05:10:25;;;;;;;12.38;6.68;;;;;;;;;;4864049;29;20190;-83
2022/12/25 05:12:52;;;;;;;7.32;5.63;;;;;;;;;;4862932;29;20048;-83
2022/12/25 05:15:19;;;;;;;8.25;5.18;;;;;;;;;;4877998;29;20508;-83
2022/12/25 05:17:47;;;;;;;5.47;4.82;;;;;;;;;;4860935;29;20057;-83
2022/12/25 05:20:14;;;;;;;9.30;4.68;;;;;;;;;;4863463;29;20049;-83
2022/12/25 05:22:41;;;;;;;10.55;6.97;;;;;;;;;;4909350;29;20311;-83
2022/12/25 05:25:09;;;;;;;12.00;8.13;;;;;;;;;;4878625;29;20057;-83
2022/12/25 05:27:36;;;;;;;8.65;5.85;;;;;;;;;;4872555;29;20550;-83
2022/12/25 05:30:03;;;;;;;11.55;6.65;;;;;;;;;;4849059;29;20056;-83
2022/12/25 05:32:31;;;;;;;15.07;10.05;;;;;;;;;;4847592;29;20127;-83
2022/12/25 05:34:59;;;;;;;7.93;7.10;;;;;;;;;;4860845;29;20151;-83
2022/12/25 05:37:26;;;;;;;6.63;5.35;;;;;;;;;;4860242;29;20060;-83
2022/12/25 05:39:54;;;;;;;5.70;4.90;;;;;;;;;;4854140;29;20057;-82
2022/12/25 05:42:21;;;;;;;7.45;5.82;;;;;;;;;;4863150;29;20083;-82
2022/12/25 05:44:48;;;;;;;6.05;5.28;;;;;;;;;;4864667;29;20045;-82
2022/12/25 05:47:16;;;;;;;6.70;5.50;;;;;;;;;;4880854;29;20049;-82
2022/12/25 05:49:43;;;;;;;5.55;5.03;;;;;;;;;;4880497;29;20048;-82
2022/12/25 05:52:10;;;;;;;11.52;5.20;;;;;;;;;;4848705;29;20509;-82
2022/12/25 05:54:38;;;;;;;13.30;5.65;;;;;;;;;;4849143;29;20542;-82
2022/12/25 05:57:05;;;;;;;15.50;5.78;;;;;;;;;;4871743;29;20060;-83
2022/12/25 05:59:33;;;;;;;7.90;4.38;;;;;;;;;;4879917;29;20394;-84
2022/12/25 06:02:00;;;;;;;7.22;6.18;;;;;;;;;;4878208;29;20417;-84
2022/12/25 06:04:28;;;;;;;9.73;5.35;;;;;;;;;;4859607;29;20365;-84
2022/12/25 06:06:55;;;;;;;7.55;5.93;;;;;;;;;;4878654;29;20075;-82
2022/12/25 06:09:23;;;;;;;7.78;6.63;;;;;;;;;;4860959;29;20052;-83
2022/12/25 06:11:50;;;;;;;7.45;5.90;;;;;;;;;;4847693;29;20067;-83
2022/12/25 06:14:17;;;;;;;7.97;5.15;;;;;;;;;;4863634;29;20268;-84
2022/12/25 06:16:45;;;;;;;7.97;5.85;;;;;;;;;;4863442;29;20100;-84
2022/12/25 06:19:12;;;;;;;7.38;5.53;;;;;;;;;;4878460;29;20052;-84
2022/12/25 06:21:40;;;;;;;7.93;6.20;;;;;;;;;;4878988;29;20519;-84
2022/12/25 06:24:07;;;;;;;7.90;7.10;;;;;;;;;;4862468;29;20139;-84
2022/12/25 06:26:37;;;;;;;10.93;7.28;;;;;;;;;;4881586;29;20100;-83
2022/12/25 06:29:05;;;;;;;9.48;8.27;;;;;;;;;;4874361;29;20048;-83
2022/12/25 06:31:33;;;;;;;9.35;8.27;;;;;;;;;;4872576;29;20509;-84
2022/12/25 06:34:04;;;;;;;6.63;5.93;;;;;;;;;;4874687;29;20404;-82
2022/12/25 06:36:31;;;;;;;8.10;6.95;;;;;;;;;;4874423;29;20080;-82
2022/12/25 06:39:00;;;;;;;8.13;6.40;;;;;;;;;;4864136;29;20049;-83
2022/12/25 06:41:28;;;;;;;9.55;6.68;;;;;;;;;;4862836;29;20051;-84
2022/12/25 06:43:57;;;;;;;7.00;6.30;;;;;;;;;;4842599;29;20049;-85
2022/12/25 06:46:26;;;;;;;7.13;6.03;;;;;;;;;;4861679;29;20044;-83
2022/12/25 06:48:54;;;;;;;8.75;6.03;;;;;;;;;;4861442;29;20048;-85
2022/12/25 06:51:22;;;;;;;9.48;5.97;;;;;;;;;;4861614;29;20056;-84
2022/12/25 06:53:50;;;;;;;5.20;4.70;;;;;;;;;;4851363;29;20505;-84
2022/12/25 06:56:19;;;;;;;6.30;5.15;;;;;;;;;;4882444;29;20068;-85
2022/12/25 06:58:49;;;;;;;6.93;5.00;;;;;;;;;;4877686;29;20425;-86
2022/12/25 07:01:24;;;;;;;6.05;5.05;;;;;;;;;;4860176;29;20501;-83
2022/12/25 07:03:56;;;;;;;6.13;5.53;;;;;;;;;;4860620;29;20044;-83
2022/12/25 07:06:24;;;;;;;6.07;5.47;;;;;;;;;;4860064;29;20063;-83
2022/12/25 07:08:51;;;;;;;6.28;5.63;;;;;;;;;;4860872;29;20068;-83
2022/12/25 07:11:19;;;;;;;7.55;6.00;;;;;;;;;;4875875;29;20087;-83
2022/12/25 07:13:47;;;;;;;8.00;5.20;;;;;;;;;;4876377;29;20071;-83
2022/12/25 07:16:14;;;;;;;6.93;4.72;;;;;;;;;;4863503;29;20052;-83
2022/12/25 07:18:42;;;;;;;6.63;4.90;;;;;;;;;;4860817;29;20051;-83
2022/12/25 07:21:14;;;;;;;7.88;5.15;;;;;;;;;;4845484;29;20085;-84
2022/12/25 07:23:42;;;;;;;4.82;4.10;;;;;;;;;;4884046;29;20052;-84
2022/12/25 07:26:10;;;;;;;5.32;4.47;;;;;;;;;;4863731;29;20059;-84
2022/12/25 07:28:38;;;;;;;8.00;4.70;;;;;;;;;;4894681;29;20064;-84
2022/12/25 07:31:06;;;;;;;7.25;4.95;;;;;;;;;;4881221;29;20049;-83
2022/12/25 07:33:34;;;;;;;6.32;4.78;;;;;;;;;;4845724;29;20063;-83
2022/12/25 07:36:04;;;;;;;5.97;4.82;;;;;;;;;;4862635;29;20087;-83
2022/12/25 07:38:32;;;;;;;10.60;9.52;;;;;;;;;;4861810;29;20487;-83
2022/12/25 07:40:59;;;;;;;9.70;7.28;;;;;;;;;;4863225;29;20048;-83
2022/12/25 07:43:27;;;;;;;6.63;5.93;;;;;;;;;;4870738;29;20049;-83
2022/12/25 07:45:55;;;;;;;8.95;6.55;;;;;;;;;;4845087;29;20048;-83
2022/12/25 07:48:23;;;;;;;8.88;7.88;;;;;;;;;;4877616;29;20053;-84
2022/12/25 07:50:57;;;;;;;7.00;6.18;;;;;;;;;;4859122;29;20049;-83
2022/12/25 07:53:25;;;;;;;9.20;7.07;;;;;;;;;;4875256;29;20045;-83
2022/12/25 07:55:59;;;;;;;7.97;6.43;;;;;;;;;;4877342;29;20282;-83
2022/12/25 07:58:27;;;;;;;7.03;6.32;;;;;;;;;;4878008;29;20041;-84
2022/12/25 08:00:54;;;;;;;7.25;6.55;;;;;;;;;;4844111;29;20053;-84
2022/12/25 08:03:22;;;;;;;6.85;6.20;;;;;;;;;;4857423;29;20045;-83
2022/12/25 08:05:50;;;;;;;6.53;5.35;;;;;;;;;;4860340;29;20044;-83
2022/12/25 08:08:17;;;;;;;8.43;5.32;;;;;;;;;;4863675;29;20144;-83
2022/12/25 08:10:46;;;;;;;7.80;6.20;;;;;;;;;;4863394;29;20048;-84
2022/12/25 08:13:13;;;;;;;6.85;5.78;;;;;;;;;;4854521;29;20146;-83
2022/12/25 08:15:41;;;;;;;5.70;5.10;;;;;;;;;;4850127;29;20083;-83
2022/12/25 08:18:09;;;;;;;4.90;4.40;;;;;;;;;;4873903;29;20071;-83
2022/12/25 08:20:36;;;;;;;5.47;4.97;;;;;;;;;;4870874;29;20071;-83
2022/12/25 08:23:04;;;;;;;6.55;4.70;;;;;;;;;;4866053;29;20076;-84
2022/12/25 08:25:31;;;;;;;5.40;4.90;;;;;;;;;;4864241;29;20272;-83
2022/12/25 08:28:00;;;;;;;10.98;5.63;;;;;;;;;;4851280;29;20144;-83
2022/12/25 08:30:28;;;;;;;6.03;4.88;;;;;;;;;;4845634;29;20108;-83
2022/12/25 08:32:55;;;;;;;6.45;5.10;;;;;;;;;;4848052;29;20050;-83
2022/12/25 08:35:24;;;;;;;7.05;5.53;;;;;;;;;;4848466;29;20064;-84
2022/12/25 08:37:52;;;;;;;6.82;4.50;;;;;;;;;;4878433;29;20079;-83
2022/12/25 08:40:19;;;;;;;4.90;4.50;;;;;;;;;;4848784;29;20514;-83
2022/12/25 08:42:47;;;;;;;14.18;12.63;;;;;;;;;;4864570;29;20051;-84
2022/12/25 08:45:14;;;;;;;10.40;7.80;;;;;;;;;;4863285;29;20386;-83
2022/12/25 08:47:41;;;;;;;9.93;5.45;;;;;;;;;;4863546;29;20044;-83
2022/12/25 08:50:09;;;;;;;8.73;5.18;;;;;;;;;;4879695;29;20175;-83
2022/12/25 08:52:36;;;;;;;7.93;4.93;;;;;;;;;;4863715;29;20131;-83
2022/12/25 08:55:04;;;;;;;8.32;7.38;;;;;;;;;;4895666;29;20502;-83
2022/12/25 08:57:31;;;;;;;11.40;7.60;;;;;;;;;;4869488;29;20136;-83
2022/12/25 08:59:59;;;;;;;7.53;6.38;;;;;;;;;;4861929;29;20045;-83
2022/12/25 09:02:26;;;;;;;6.47;5.90;;;;;;;;;;4871554;29;20052;-83
2022/12/25 09:04:54;;;;;;;8.32;6.63;;;;;;;;;;4862981;29;20119;-83
2022/12/25 09:07:21;;;;;;;7.55;6.78;;;;;;;;;;4863431;29;20147;-83
2022/12/25 09:09:48;;;;;;;6.32;5.72;;;;;;;;;;4847577;29;20060;-83
2022/12/25 09:12:16;;;;;;;6.18;5.03;;;;;;;;;;4847454;29;20064;-83
2022/12/25 09:14:43;;;;;;;6.15;5.07;;;;;;;;;;4862989;29;20088;-83
2022/12/25 09:17:11;;;;;;;9.35;5.70;;;;;;;;;;4847239;29;20058;-84
2022/12/25 09:19:38;;;;;;;6.40;5.38;;;;;;;;;;4861382;29;20097;-83
2022/12/25 09:22:05;;;;;;;8.80;5.80;;;;;;;;;;4862402;29;20053;-83
2022/12/25 09:24:32;;;;;;;6.07;5.47;;;;;;;;;;4862967;29;20052;-83
2022/12/25 09:27:00;;;;;;;8.02;5.45;;;;;;;;;;4868752;29;20049;-84
2022/12/25 09:29:27;;;;;;;8.15;6.03;;;;;;;;;;4869559;29;20056;-83
2022/12/25 09:31:55;;;;;;;7.35;5.88;;;;;;;;;;4856936;29;20064;-84
2022/12/25 09:34:22;;;;;;;5.70;5.18;;;;;;;;;;4857410;29;20049;-83
2022/12/25 09:36:49;;;;;;;9.27;6.50;;;;;;;;;;4864535;29;20066;-84
2022/12/25 09:39:17;;;;;;;8.45;6.20;;;;;;;;;;4848827;29;20056;-85
2022/12/25 09:41:56;;;;;;;8.48;6.78;;;;;;;;;;4849944;29;20143;-84
2022/12/25 09:44:35;;;;;;;5.82;5.30;;;;;;;;;;4880922;29;20048;-83
2022/12/25 09:47:05;;;;;;;11.02;7.00;;;;;;;;;;4865983;29;20068;-83
2022/12/25 09:49:41;;;;;;;7.30;5.93;;;;;;;;;;4855216;29;20087;-84
2022/12/25 09:52:14;;;;;;;8.02;6.13;;;;;;;;;;4896119;29;20072;-84
2022/12/25 09:54:46;;;;;;;7.80;6.50;;;;;;;;;;4866075;29;20079;-84
2022/12/25 09:57:15;;;;;;;9.52;8.50;;;;;;;;;;4890276;29;20052;-83
2022/12/25 09:59:43;;;;;;;12.25;11.07;;;;;;;;;;4858432;24;20137;-82
2022/12/25 10:02:30;;;;;;;8.02;6.95;;;;;;;;;;4848418;29;20057;-82
2022/12/25 10:04:57;;;;;;;10.65;7.78;;;;;;;;;;4855669;29;20490;-84
2022/12/25 10:07:40;;;;;;;7.30;6.45;;;;;;;;;;4846215;29;20096;-84
2022/12/25 10:10:10;;;;;;;8.65;6.15;;;;;;;;;;4839627;29;20501;-86
2022/12/25 10:12:48;;;;;;;11.07;7.18;;;;;;;;;;4853854;29;20063;-84
2022/12/25 10:15:25;;;;;;;10.68;8.65;;;;;;;;;;4870255;29;20454;-84
2022/12/25 10:18:07;;;;;;;9.93;8.50;;;;;;;;;;4856101;29;20498;-85
2022/12/25 10:21:01;;;;;;;17.80;16.00;;;;;;;;;;4872300;29;20476;-83
2022/12/25 10:23:38;;;;;;;12.77;10.70;;;;;;;;;;4848158;29;20072;-83
2022/12/25 10:26:16;;;;;;;12.68;10.20;;;;;;;;;;4849513;29;20041;-85
2022/12/25 10:28:52;;;;;;;11.15;9.95;;;;;;;;;;4854449;29;20053;-85
2022/12/25 10:31:21;;;;;;;14.35;9.93;;;;;;;;;;4852082;29;20041;-84
2022/12/25 10:33:49;;;;;;;10.52;7.50;;;;;;;;;;4852531;29;20047;-83
2022/12/25 10:36:18;;;;;;;8.75;7.28;;;;;;;;;;4839602;29;20053;-85
2022/12/25 10:38:46;;;;;;;12.30;7.22;;;;;;;;;;4839955;29;20041;-83
2022/12/25 10:41:18;;;;;;;8.55;6.75;;;;;;;;;;4840015;29;20057;-83
2022/12/25 10:43:49;;;;;;;10.98;7.15;;;;;;;;;;4836122;29;20057;-85
2022/12/25 10:46:17;;;;;;;14.75;13.02;;;;;;;;;;4831120;29;20050;-86
2022/12/25 10:48:48;;;;;;;12.98;11.15;;;;;;;;;;4818298;29;20644;-84
2022/12/25 10:51:32;;;;;;;22.67;17.88;;;;;;;;;;4823394;29;20053;-84
2022/12/25 10:54:17;;;;;;;13.52;9.82;;;;;;;;;;4837160;29;20112;-85
2022/12/25 10:57:03;;;;;;;16.10;12.07;;;;;;;;;;4865091;29;20045;-83
2022/12/25 10:59:34;;;;;;;22.45;16.48;;;;;;;;;;4835623;29;20995;-84
2022/12/25 11:02:10;;;;;;;20.02;17.83;;;;;;;;;;4865901;29;20383;-85
2022/12/25 11:04:38;;;;;;;17.77;13.35;;;;;;;;;;4839872;29;20045;-83
2022/12/25 11:07:05;;;;;;;33.75;26.45;;;;;;;;;;4816356;29;20057;-84
2022/12/25 11:09:33;;;;;;;15.55;12.32;;;;;;;;;;4851528;29;20486;-84
2022/12/25 11:12:01;;;;;;;13.75;10.57;;;;;;;;;;4841762;29;20109;-84
2022/12/25 11:14:29;;;;;;;19.60;16.85;;;;;;;;;;4851072;29;20060;-84
2022/12/25 11:17:08;;;;;;;26.67;23.92;;;;;;;;;;4838868;29;20465;-84
2022/12/25 11:19:35;;;;;;;20.08;17.23;;;;;;;;;;4819616;29;20056;-85
2022/12/25 11:22:04;;;;;;;14.93;11.52;;;;;;;;;;4837356;29;20162;-84
2022/12/25 11:24:32;;;;;;;10.75;7.93;;;;;;;;;;4841416;29;20053;-84
2022/12/25 11:27:04;;;;;;;15.82;10.35;;;;;;;;;;4842247;29;20053;-85
2022/12/25 11:29:34;;;;;;;13.73;9.77;;;;;;;;;;4825084;29;20060;-86
2022/12/25 11:32:02;;;;;;;9.18;7.97;;;;;;;;;;4848262;29;20117;-85
2022/12/25 11:34:31;;;;;;;25.98;22.58;;;;;;;;;;4840761;29;20061;-84
2022/12/25 11:36:59;;;;;;;12.65;10.93;;;;;;;;;;4841635;29;20045;-84
2022/12/25 11:39:31;;;;;;;13.10;8.45;;;;;;;;;;4851424;29;20061;-85
2022/12/25 11:41:58;;;;;;;11.43;10.25;;;;;;;;;;4824539;29;20045;-85
2022/12/25 11:45:01;;;;;;;12.10;9.88;;;;;;;;;;4821592;29;20053;-84
2022/12/25 11:47:37;;;;;;;13.07;8.68;;;;;;;;;;4776976;29;20590;-84
2022/12/25 11:50:13;;;;;;;11.25;7.88;;;;;;;;;;4845338;29;20120;-85
2022/12/25 11:52:44;;;;;;;12.88;7.47;;;;;;;;;;4861722;29;20477;-84
2022/12/25 11:55:15;;;;;;;14.07;11.00;;;;;;;;;;4839003;29;20086;-86
2022/12/25 11:57:44;;;;;;;17.58;15.77;;;;;;;;;;4826615;29;20332;-84
2022/12/25 12:00:14;;;;;;;11.48;7.15;;;;;;;;;;4837181;29;20057;-86
2022/12/25 12:02:44;;;;;;;19.38;9.43;;;;;;;;;;4871562;29;20075;-85
2022/12/25 12:05:16;;;;;;;12.52;8.25;;;;;;;;;;4849119;29;20055;-84
2022/12/25 12:08:03;;;;;;;10.30;8.02;;;;;;;;;;4854804;29;20057;-84
2022/12/25 12:10:49;;;;;;;8.90;6.85;;;;;;;;;;4852493;29;20057;-84
2022/12/25 12:13:25;;;;;;;8.40;6.13;;;;;;;;;;4855056;29;20049;-84
2022/12/25 12:15:53;;;;;;;34.72;28.80;;;;;;;;;;4845740;29;20060;-84
2022/12/25 12:18:27;;;;;;;13.88;10.55;;;;;;;;;;4848595;29;20064;-86
2022/12/25 12:21:04;;;;;;;10.65;7.65;;;;;;;;;;4864543;29;20091;-84
2022/12/25 12:23:49;;;;;;;21.30;16.25;;;;;;;;;;4847743;29;20057;-85
2022/12/25 12:26:19;;;;;;;11.98;8.55;;;;;;;;;;4831713;29;20053;-85
2022/12/25 12:28:47;;;;;;;9.60;5.93;;;;;;;;;;4847294;29;20049;-83
2022/12/25 12:31:15;;;;;;;5.70;4.40;;;;;;;;;;4832358;29;20070;-84
2022/12/25 12:33:53;;;;;;;8.35;7.43;;;;;;;;;;4843705;29;20113;-83
2022/12/25 12:36:21;;;;;;;10.00;6.55;;;;;;;;;;4854494;29;20070;-84
2022/12/25 12:39:01;;;;;;;6.57;4.15;;;;;;;;;;4843723;29;20053;-84
2022/12/25 12:41:45;;;;;;;5.55;2.75;;;;;;;;;;4845966;29;20049;-83
2022/12/25 12:44:15;;;;;;;4.57;3.20;;;;;;;;;;4847176;29;20041;-83
2022/12/25 12:46:51;;;;;;;8.90;3.65;;;;;;;;;;4836526;29;20049;-85
2022/12/25 12:49:26;;;;;;;4.22;3.20;;;;;;;;;;4854404;29;20117;-84
2022/12/25 12:52:07;;;;;;;5.88;2.88;;;;;;;;;;4844752;29;20041;-84
2022/12/25 12:54:50;;;;;;;10.73;8.73;;;;;;;;;;4858817;29;20060;-85
2022/12/25 12:57:25;;;;;;;5.15;3.75;;;;;;;;;;4831723;29;20120;-83
2022/12/25 12:59:53;;;;;;;11.73;4.28;;;;;;;;;;4868051;29;20055;-85
2022/12/25 13:02:31;;;;;;;4.70;3.75;;;;;;;;;;4851268;29;20049;-85
2022/12/25 13:05:14;;;;;;;5.78;2.70;;;;;;;;;;4846608;29;20060;-84
2022/12/25 13:07:50;;;;;;;5.70;3.17;;;;;;;;;;4861979;29;20366;-84
2022/12/25 13:10:18;;;;;;;5.88;5.18;;;;;;;;;;4847866;29;20084;-85
2022/12/25 13:12:45;;;;;;;8.32;4.55;;;;;;;;;;4845794;29;20413;-84
2022/12/25 13:15:13;;;;;;;10.65;5.20;;;;;;;;;;4862462;29;20057;-84
2022/12/25 13:17:45;;;;;;;7.35;5.28;;;;;;;;;;4849361;29;20097;-84
2022/12/25 13:20:20;;;;;;;5.75;3.78;;;;;;;;;;4877841;29;20129;-84
2022/12/25 13:22:48;;;;;;;7.05;3.88;;;;;;;;;;4870638;29;20072;-84
2022/12/25 13:25:20;;;;;;;7.23;5.77;;;;;;;;;;4841858;29;20050;-84
2022/12/25 13:27:58;;;;;;;6.97;3.42;;;;;;;;;;4829707;29;20530;-83
2022/12/25 13:30:26;;;;;;;7.70;4.43;;;;;;;;;;4847778;29;20052;-84
2022/12/25 13:32:53;;;;;;;9.30;5.50;;;;;;;;;;4847726;29;20168;-84
2022/12/25 13:35:22;;;;;;;9.88;4.00;;;;;;;;;;4829600;29;20060;-84
2022/12/25 13:37:50;;;;;;;10.95;5.07;;;;;;;;;;4850322;29;20044;-84
2022/12/25 13:40:20;;;;;;;8.77;5.05;;;;;;;;;;4849424;29;20120;-84
2022/12/25 13:42:48;;;;;;;12.38;6.82;;;;;;;;;;4831929;29;20063;-85
2022/12/25 13:45:23;;;;;;;10.63;7.60;;;;;;;;;;4853475;29;20056;-84
2022/12/25 13:47:52;;;;;;;10.50;7.55;;;;;;;;;;4860251;29;20048;-84
2022/12/25 13:50:29;;;;;;;9.73;5.85;;;;;;;;;;4845449;29;20057;-84
2022/12/25 13:52:58;;;;;;;9.52;7.10;;;;;;;;;;4842291;29;20045;-84
2022/12/25 13:55:27;;;;;;;11.93;7.32;;;;;;;;;;4841995;29;20041;-84
2022/12/25 13:58:02;;;;;;;13.93;7.00;;;;;;;;;;4843483;29;20301;-84
2022/12/25 14:00:44;;;;;;;12.32;6.85;;;;;;;;;;4845472;29;20081;-84
2022/12/25 14:03:21;;;;;;;12.43;7.47;;;;;;;;;;4860354;29;20056;-84
2022/12/25 14:06:15;;;;;;;13.32;8.75;;;;;;;;;;4858762;29;20044;-84
2022/12/25 14:08:43;;;;;;;11.40;8.82;;;;;;;;;;4810775;29;20550;-84
2022/12/25 14:11:13;;;;;;;14.38;8.07;;;;;;;;;;4872279;29;20126;-82
2022/12/25 14:13:42;;;;;;;10.07;6.53;;;;;;;;;;4862907;29;20486;-83
2022/12/25 14:16:10;;;;;;;9.90;7.10;;;;;;;;;;4853256;29;20092;-84
2022/12/25 14:18:38;;;;;;;8.43;7.03;;;;;;;;;;4845460;29;20112;-84
2022/12/25 14:21:21;;;;;;;9.32;5.60;;;;;;;;;;4826252;29;20042;-84
2022/12/25 14:23:49;;;;;;;20.13;7.30;;;;;;;;;;4831232;29;20045;-85
2022/12/25 14:26:16;;;;;;;29.67;10.27;;;;;;;;;;4828877;29;20055;-86
2022/12/25 14:29:03;;;;;;;35.90;12.98;;;;;;;;;;4829550;29;20144;-85
2022/12/25 14:31:31;;;;;;;78.70;30.02;;;;;;;;;;4844597;29;20624;-85
2022/12/25 14:34:00;;;;;;;60.50;28.90;;;;;;;;;;4844483;29;20115;-84
2022/12/25 14:36:28;;;;;;;62.42;31.88;;;;;;;;;;4841989;29;20053;-84
2022/12/25 14:39:00;;;;;;;38.00;22.73;;;;;;;;;;4840989;29;20446;-85
2022/12/25 14:41:36;;;;;;;;;;;;;;;;;;4858182;29;20096;-84
2022/12/25 14:44:22;;;;;;;24.67;15.45;;;;;;;;;;4841952;29;19923;-83
2022/12/25 14:46:49;;;;;;;17.02;11.57;;;;;;;;;;4844621;29;20045;-85
2022/12/25 14:49:23;;;;;;;16.63;10.60;;;;;;;;;;4831683;29;20056;-84
2022/12/25 14:51:51;;;;;;;9.65;6.75;;;;;;;;;;4846952;29;20060;-84
2022/12/25 14:54:19;;;;;;;9.55;6.38;;;;;;;;;;4865093;29;20064;-86
2022/12/25 14:56:51;;;;;;;9.23;5.32;;;;;;;;;;4838063;29;20067;-84
2022/12/25 14:59:20;;;;;;;9.10;5.82;;;;;;;;;;4837816;29;20045;-85
2022/12/25 15:01:56;;;;;;;11.07;7.40;;;;;;;;;;4852701;29;20502;-84
2022/12/25 15:04:24;;;;;;;9.40;6.45;;;;;;;;;;4834830;29;20049;-85
2022/12/25 15:06:54;;;;;;;9.55;6.75;;;;;;;;;;4854016;29;20089;-85
2022/12/25 15:09:22;;;;;;;7.28;6.55;;;;;;;;;;4852509;29;20061;-84
2022/12/25 15:11:51;;;;;;;8.02;6.90;;;;;;;;;;4856682;29;20088;-83
2022/12/25 15:14:18;;;;;;;9.52;5.53;;;;;;;;;;4843305;29;20061;-85
2022/12/25 15:16:47;;;;;;;8.00;6.13;;;;;;;;;;4826771;29;20061;-85
2022/12/25 15:19:25;;;;;;;8.23;5.72;;;;;;;;;;4843051;29;20053;-84
2022/12/25 15:22:00;;;;;;;7.22;5.65;;;;;;;;;;4831385;29;20053;-84
2022/12/25 15:24:28;;;;;;;8.57;5.28;;;;;;;;;;4842360;29;20049;-85
2022/12/25 15:26:58;;;;;;;7.00;5.78;;;;;;;;;;4848289;29;20060;-84
2022/12/25 15:29:26;;;;;;;11.77;8.98;;;;;;;;;;4866767;29;20056;-84
2022/12/25 15:32:21;;;;;;;9.95;6.95;;;;;;;;;;4841675;29;20084;-84
2022/12/25 15:34:48;;;;;;;12.43;7.60;;;;;;;;;;4865564;29;20045;-82
2022/12/25 15:37:17;;;;;;;13.43;7.28;;;;;;;;;;4843055;29;20053;-84
2022/12/25 15:39:45;;;;;;;10.82;6.22;;;;;;;;;;4857495;29;20132;-85
2022/12/25 15:42:13;;;;;;;11.88;5.88;;;;;;;;;;4856928;29;20049;-84
2022/12/25 15:44:41;;;;;;;9.68;5.95;;;;;;;;;;4852840;29;20065;-84
2022/12/25 15:47:09;;;;;;;7.22;5.05;;;;;;;;;;4854979;29;20041;-84
2022/12/25 15:49:37;;;;;;;10.13;6.38;;;;;;;;;;4843352;29;20514;-84
2022/12/25 15:52:05;;;;;;;11.95;6.95;;;;;;;;;;4843772;29;20064;-85
2022/12/25 15:54:32;;;;;;;12.55;8.20;;;;;;;;;;4875315;29;20057;-86
2022/12/25 15:57:01;;;;;;;11.80;8.60;;;;;;;;;;4858180;29;20078;-84
2022/12/25 15:59:29;;;;;;;17.50;12.35;;;;;;;;;;4824085;24;1109225;-82
2022/12/25 16:01:57;;;;;;;19.05;13.45;;;;;;;;;;4865046;29;20034;-84
2022/12/25 16:04:30;;;;;;;15.43;9.55;;;;;;;;;;4846931;29;20567;-83
2022/12/25 16:06:58;;;;;;;8.25;7.30;;;;;;;;;;4855229;29;20050;-83
2022/12/25 16:09:26;;;;;;;8.30;7.35;;;;;;;;;;4851995;29;20056;-83
2022/12/25 16:11:53;;;;;;;15.75;10.07;;;;;;;;;;4853604;29;20058;-83
2022/12/25 16:14:21;;;;;;;8.38;6.30;;;;;;;;;;4820811;29;20058;-84
2022/12/25 16:16:49;;;;;;;7.40;5.85;;;;;;;;;;4837546;29;20050;-81
2022/12/25 16:19:16;;;;;;;13.57;8.25;;;;;;;;;;4837773;29;20046;-82
2022/12/25 16:21:44;;;;;;;8.30;5.72;;;;;;;;;;4854921;29;20050;-82
2022/12/25 16:24:15;;;;;;;6.20;4.97;;;;;;;;;;4856259;29;20097;-83
2022/12/25 16:26:43;;;;;;;8.13;5.75;;;;;;;;;;4830875;29;20053;-84
2022/12/25 16:29:13;;;;;;;9.55;6.50;;;;;;;;;;4869778;29;20057;-82
2022/12/25 16:31:43;;;;;;;9.45;6.63;;;;;;;;;;4852294;29;20065;-83
2022/12/25 16:34:13;;;;;;;14.98;13.45;;;;;;;;;;4850097;29;20657;-83
2022/12/25 16:36:40;;;;;;;9.57;6.70;;;;;;;;;;4791117;29;20174;-82
2022/12/25 16:39:08;;;;;;;11.68;5.30;;;;;;;;;;4840414;29;20580;-83
2022/12/25 16:41:35;;;;;;;7.43;5.55;;;;;;;;;;4841254;29;20046;-84